D/T METAR WX W/DIR W/SPE G/SPE TEMP DEWP
23/03/19 11:50 EGDM 231150Z 05008KT 9999 FEW025 SCT032 BKN220 12/06 Q1032 BLU NOSIG NE (50°) 9.2mph 12°C 6°C
23/03/19 10:50 EGDM 231050Z 06008KT 9999 FEW018 BKN045 11/07 Q1032 BLU NOSIG ENE (60°) 9.2mph 11°C 7°C
23/03/19 09:50 EGDM 230950Z 03009KT 9999 SCT015 BKN033 10/07 Q1032 WHT BECMG FEW020 BLU NNE (30°) 10.4mph 10°C 7°C
23/03/19 09:14 EGDM 230914Z 02010KT 8000 -DZ FEW012 OVC022 09/07 Q1032 WHT BECMG BKN025 BLU -DZ NNE (20°) 11.5mph 9°C 7°C
23/03/19 08:50 EGDM 230850Z 01007KT 9999 FEW018 OVC025 09/07 Q1031 BLU NOSIG N (10°) 8.1mph 9°C 7°C
23/03/19 07:50 EGDM 230750Z 06003KT 9999 FEW022 BKN030 BKN040 08/08 Q1031 BLU ENE (60°) 3.5mph 8°C 8°C
23/03/19 06:50 EGDM 230650Z AUTO 36004KT 2800 BR BKN020/// 07/07 Q1030 BR N (360°) 4.6mph 7°C 7°C
23/03/19 05:50 EGDM 230550Z AUTO 36004KT 1800 BR FEW003/// BKN022/// 07/07 Q1030 RERA BR N (360°) 4.6mph 7°C 7°C
23/03/19 04:50 EGDM 230450Z AUTO 33001KT 1800 BR SCT005/// BKN023/// 07/07 Q1029 BR NNW (330°) 1.2mph 7°C 7°C
23/03/19 03:50 EGDM 230350Z AUTO 00000KT 1200 BKN006/// BKN024/// 07/07 Q1029 N (0°) 7°C 7°C
23/03/19 02:50 EGDM 230250Z AUTO 27002KT 1300 BKN008/// BKN023/// 07/07 Q1029 W (270°) 2.3mph 7°C 7°C
23/03/19 01:50 EGDM 230150Z AUTO 18004KT 0600 BCFG FEW001/// BKN011/// 06/05 Q1029 BCFG S (180°) 4.6mph 6°C 5°C
23/03/19 00:50 EGDM 230050Z AUTO 23005KT 0250 FG SCT015/// 07/07 Q1028 FG SW (230°) 5.8mph 7°C 7°C
22/03/19 23:50 EGDM 222350Z AUTO 25004KT 2100 BR NCD 07/06 Q1028 BR WSW (250°) 4.6mph 7°C 6°C
22/03/19 22:50 EGDM 222250Z AUTO 26003KT 8000 HZ FEW030/// 08/07 Q1028 HZ W (260°) 3.5mph 8°C 7°C
22/03/19 21:50 EGDM 222150Z AUTO 21004KT 9999 OVC022/// 09/07 Q1028 SSW (210°) 4.6mph 9°C 7°C
22/03/19 20:50 EGDM 222050Z AUTO 25005KT 9999 FEW016/// OVC020/// 09/07 Q1028 WSW (250°) 5.8mph 9°C 7°C
22/03/19 19:50 EGDM 221950Z AUTO 21004KT 9999 BKN024/// 09/07 Q1028 SSW (210°) 4.6mph 9°C 7°C
22/03/19 18:50 EGDM 221850Z AUTO 22005KT 9999 OVC020/// 10/07 Q1027 SW (220°) 5.8mph 10°C 7°C
22/03/19 17:50 EGDM 221750Z AUTO 21006KT 9999 OVC025/// 10/07 Q1027 SSW (210°) 6.9mph 10°C 7°C
22/03/19 16:50 EGDM 221650Z AUTO 20008KT 9999 FEW017/// OVC024/// 10/07 Q1027 SSW (200°) 9.2mph 10°C 7°C
22/03/19 15:50 EGDM 221550Z 25008KT 9999 OVC017 10/06 Q1027 WHT NOSIG WSW (250°) 9.2mph 10°C 6°C
22/03/19 14:50 EGDM 221450Z 24010KT 9999 FEW015 OVC018 10/06 Q1027 WHT NOSIG WSW (240°) 11.5mph 10°C 6°C
22/03/19 13:50 EGDM 221350Z 23008KT 9999 SCT015 OVC018 10/07 Q1027 WHT NOSIG SW (230°) 9.2mph 10°C 7°C
22/03/19 12:50 EGDM 221250Z 21009KT 9999 BKN015 OVC018 10/07 Q1028 WHT NOSIG SSW (210°) 10.4mph 10°C 7°C
22/03/19 11:50 EGDM 221150Z 22008KT 9999 SCT013 OVC017 10/07 Q1028 GRN BECMG BKN018 WHT SW (220°) 9.2mph 10°C 7°C
22/03/19 10:50 EGDM 221050Z 21007KT 9999 OVC012 09/07 Q1028 GRN BECMG BKN015 WHT SSW (210°) 8.1mph 9°C 7°C
22/03/19 09:50 EGDM 220950Z 21006KT 9999 OVC012 09/07 Q1029 GRN BECMG BKN015 WHT SSW (210°) 6.9mph 9°C 7°C
22/03/19 08:50 EGDM 220850Z 21005KT 9999 OVC012 08/06 Q1029 GRN BECMG BKN015 WHT SSW (210°) 5.8mph 8°C 6°C
22/03/19 07:50 EGDM 220750Z 23008KT 9999 OVC010 08/06 Q1029 GRN NOSIG SW (230°) 9.2mph 8°C 6°C
22/03/19 06:50 EGDM 220650Z 22006KT 9999 OVC009 08/06 Q1028 GRN SW (220°) 6.9mph 8°C 6°C
22/03/19 05:50 EGDM 220550Z AUTO 21007KT 9999 OVC008/// 08/06 Q1028 SSW (210°) 8.1mph 8°C 6°C
22/03/19 04:50 EGDM 220450Z AUTO 20008KT 9999 OVC010/// 08/06 Q1029 SSW (200°) 9.2mph 8°C 6°C
22/03/19 03:50 EGDM 220350Z AUTO 17008KT 9999 BKN010/// 08/06 Q1029 S (170°) 9.2mph 8°C 6°C
22/03/19 02:50 EGDM 220250Z AUTO 18007KT 9999 OVC015/// 09/07 Q1029 S (180°) 8.1mph 9°C 7°C
22/03/19 00:50 EGDM 220050Z AUTO 16007KT 9999 OVC014/// 10/08 Q1030 SSE (160°) 8.1mph 10°C 8°C
21/03/19 23:50 EGDM 212350Z AUTO 16007KT 9999 OVC014/// 10/08 Q1030 SSE (160°) 8.1mph 10°C 8°C
21/03/19 22:50 EGDM 212250Z AUTO 15005KT 9999 OVC018/// 10/09 Q1030 SSE (150°) 5.8mph 10°C 9°C
21/03/19 21:50 EGDM 212150Z AUTO 15006KT 9999 OVC015/// 11/09 Q1031 SSE (150°) 6.9mph 11°C 9°C
21/03/19 20:50 EGDM 212050Z AUTO 00000KT 9999 OVC015/// 11/08 Q1031 N (0°) 11°C 8°C
21/03/19 19:50 EGDM 211950Z AUTO 24002KT 9999 OVC014/// 11/08 Q1032 WSW (240°) 2.3mph 11°C 8°C
21/03/19 18:50 EGDM 211850Z AUTO 04002KT 9999 OVC014/// 11/08 Q1032 NE (40°) 2.3mph 11°C 8°C
21/03/19 17:50 EGDM 211750Z 27002KT 9999 OVC014 11/08 Q1032 GRN NOSIG W (270°) 2.3mph 11°C 8°C
21/03/19 16:50 EGDM 211650Z 29003KT 9999 OVC015 12/09 Q1032 WHT BECMG BKN012 GRN WNW (290°) 3.5mph 12°C 9°C
21/03/19 15:50 EGDM 211550Z 30004KT 9999 OVC016 12/09 Q1032 WHT NOSIG WNW (300°) 4.6mph 12°C 9°C
21/03/19 14:50 EGDM 211450Z 29005KT 9999 OVC017 12/09 Q1032 WHT NOSIG WNW (290°) 5.8mph 12°C 9°C
21/03/19 14:21 EGDM 211421Z 28005KT 9999 OVC016 13/09 Q1033 WHT NOSIG W (280°) 5.8mph 13°C 9°C
21/03/19 12:50 EGDM 211250Z 26003KT 9999 OVC013 12/09 Q1034 GRN TEMPO BKN015 WHT W (260°) 3.5mph 12°C 9°C
21/03/19 11:50 EGDM 211150Z 29005KT 9999 BKN011 11/09 Q1034 GRN NOSIG WNW (290°) 5.8mph 11°C 9°C
21/03/19 10:50 EGDM 211050Z 28005KT 9999 FEW006 OVC008 10/09 Q1034 GRN NOSIG W (280°) 5.8mph 10°C 9°C
21/03/19 09:50 EGDM 210950Z 28007KT 9999 FEW004 OVC006 09/08 Q1034 YLO1 BECMG BKN008 GRN W (280°) 8.1mph 9°C 8°C
21/03/19 08:50 EGDM 210850Z 26005KT 9999 FEW003 BKN005 OVC017 09/09 Q1034 YLO1 BECMG BKN010 GRN W (260°) 5.8mph 9°C 9°C
21/03/19 07:50 EGDM 210750Z 20003KT 8000 BR FEW002 BKN004 OVC017 09/08 Q1034 YLO2 BECMG BKN008 GRN BR SSW (200°) 3.5mph 9°C 8°C
21/03/19 06:50 EGDM 210650Z 25004KT 4200 BR FEW002 BKN004 OVC015 08/08 Q1033 YLO2 BR WSW (250°) 4.6mph 8°C 8°C
21/03/19 05:50 EGDM 210550Z AUTO 24003KT 1600 BR BKN002/// 08/08 Q1033 RERA BR WSW (240°) 3.5mph 8°C 8°C
21/03/19 04:50 EGDM 210450Z AUTO 28004KT 1900 BR OVC002/// 08/08 Q1033 RERA BR W (280°) 4.6mph 8°C 8°C
21/03/19 03:50 EGDM 210350Z AUTO 28005KT 2200 -DZ BKN003/// SCT006/// BKN009/// 08/08 Q1032 -DZ W (280°) 5.8mph 8°C 8°C
21/03/19 02:50 EGDM 210250Z AUTO 27005KT 3600 BR BKN003/// SCT007/// BKN011/// 08/08 Q1033 BR W (270°) 5.8mph 8°C 8°C
21/03/19 01:50 EGDM 210150Z AUTO 27005KT 6000 BR FEW004/// OVC010/// 09/08 Q1033 BR W (270°) 5.8mph 9°C 8°C
21/03/19 00:50 EGDM 210050Z AUTO 24005KT 7000 BR FEW006/// OVC010/// 09/08 Q1033 BR WSW (240°) 5.8mph 9°C 8°C
20/03/19 23:50 EGDM 202350Z AUTO 25005KT 9000 BR OVC012/// 09/08 Q1033 BR WSW (250°) 5.8mph 9°C 8°C
20/03/19 22:50 EGDM 202250Z AUTO 21005KT 8000 HZ OVC014/// 09/08 Q1033 HZ SSW (210°) 5.8mph 9°C 8°C
20/03/19 21:50 EGDM 202150Z AUTO 20005KT 9999 OVC016/// 09/08 Q1033 SSW (200°) 5.8mph 9°C 8°C
20/03/19 20:50 EGDM 202050Z AUTO 19006KT 9999 OVC016/// 09/07 Q1033 S (190°) 6.9mph 9°C 7°C
20/03/19 19:50 EGDM 201950Z AUTO 19006KT 9999 OVC016/// 09/08 Q1033 S (190°) 6.9mph 9°C 8°C
20/03/19 18:50 EGDM 201850Z AUTO 21005KT 9999 OVC014/// 10/07 Q1033 SSW (210°) 5.8mph 10°C 7°C
20/03/19 17:50 EGDM 201750Z 23007KT 9999 OVC015 10/08 Q1032 WHT SW (230°) 8.1mph 10°C 8°C
20/03/19 16:50 EGDM 201650Z 21008KT 9999 OVC016 11/08 Q1032 WHT NOSIG SSW (210°) 9.2mph 11°C 8°C
20/03/19 15:50 EGDM 201550Z 22008KT 9999 OVC016 11/08 Q1032 WHT NOSIG SW (220°) 9.2mph 11°C 8°C
20/03/19 14:50 EGDM 201450Z 21008KT 9999 OVC016 12/09 Q1032 WHT NOSIG SSW (210°) 9.2mph 12°C 9°C
20/03/19 13:50 EGDM 201350Z 22008KT 9999 OVC015 11/09 Q1032 WHT NOSIG SW (220°) 9.2mph 11°C 9°C
20/03/19 12:50 EGDM 201250Z 21010KT 9999 OVC010 11/08 Q1033 GRN NOSIG SSW (210°) 11.5mph 11°C 8°C
20/03/19 11:50 EGDM 201150Z 21008KT 9999 OVC010 11/08 Q1033 GRN BECMG BKN015 WHT SSW (210°) 9.2mph 11°C 8°C
20/03/19 10:50 EGDM 201050Z 21008KT 9999 BKN012 BKN014 11/08 Q1033 GRN BECMG BKN015 WHT SSW (210°) 9.2mph 11°C 8°C
20/03/19 09:50 EGDM 200950Z 25008KT 9999 -DZ BKN010 10/08 Q1033 GRN BECMG BKN016 WHT -DZ WSW (250°) 9.2mph 10°C 8°C
20/03/19 08:50 EGDM 200850Z 24004KT 9999 FEW005 OVC012 09/08 Q1032 GRN BECMG BKN016 WHT WSW (240°) 4.6mph 9°C 8°C
20/03/19 08:28 EGDM 200828Z 22007KT 9999 SCT005 OVC008 09/08 Q1032 YLO1 BECMG BKN008 GRN SW (220°) 8.1mph 9°C 8°C
20/03/19 07:50 EGDM 200750Z 22005KT 4000 -DZ OVC002 09/08 Q1032 AMB BECMG 9999 NSW BKN007 GRN -DZ SW (220°) 5.8mph 9°C 8°C
20/03/19 06:50 EGDM 200650Z 20003KT 7000 BR SCT004 OVC012 08/08 Q1031 YLO2 BR SSW (200°) 3.5mph 8°C 8°C
20/03/19 05:50 EGDM 200550Z AUTO 25003KT 9999 FEW006/// OVC009/// 08/07 Q1031 WSW (250°) 3.5mph 8°C 7°C
20/03/19 04:50 EGDM 200450Z AUTO 28002KT 9999 BKN009/// 08/07 Q1031 W (280°) 2.3mph 8°C 7°C
20/03/19 03:50 EGDM 200350Z AUTO 21003KT 8000 BR BKN014/// SCT021/// 08/07 Q1030 BR SSW (210°) 3.5mph 8°C 7°C
20/03/19 02:50 EGDM 200250Z AUTO 21003KT 6000 BR BKN009/// BKN060/// 08/07 Q1030 BR SSW (210°) 3.5mph 8°C 7°C
20/03/19 01:50 EGDM 200150Z AUTO 21005KT 8000 HZ FEW013/// 06/05 Q1030 HZ SSW (210°) 5.8mph 6°C 5°C
20/03/19 00:50 EGDM 200050Z AUTO 27005KT 9999 SCT046/// SCT070/// 08/07 Q1030 W (270°) 5.8mph 8°C 7°C
19/03/19 23:50 EGDM 192350Z AUTO 22005KT 9999 FEW028/// BKN042/// 08/07 Q1030 SW (220°) 5.8mph 8°C 7°C
19/03/19 22:50 EGDM 192250Z AUTO 21003KT 9999 SCT032/// BKN060/// 09/07 Q1030 SSW (210°) 3.5mph 9°C 7°C
19/03/19 21:50 EGDM 192150Z 22005KT 9999 FEW022 SCT042 BKN080 09/07 Q1030 BLU BECMG SCT020 WHT SW (220°) 5.8mph 9°C 7°C
19/03/19 20:50 EGDM 192050Z 25006KT 9999 SCT025 SCT040 BKN060 09/07 Q1030 BLU BECMG SCT020 WHT WSW (250°) 6.9mph 9°C 7°C
19/03/19 19:50 EGDM 191950Z 23007KT 9999 FEW030 BKN050 10/07 Q1029 BLU NOSIG SW (230°) 8.1mph 10°C 7°C
19/03/19 18:50 EGDM 191850Z 23006KT 9999 FEW018 BKN050 10/07 Q1029 BLU SW (230°) 6.9mph 10°C 7°C
19/03/19 17:50 EGDM 191750Z 25006KT 9999 FEW020 BKN030 11/07 Q1028 BLU WSW (250°) 6.9mph 11°C 7°C
19/03/19 16:50 EGDM 191650Z 24008KT 9999 FEW020 BKN032 11/07 Q1027 BLU NOSIG WSW (240°) 9.2mph 11°C 7°C
19/03/19 15:50 EGDM 191550Z 28009KT 9999 FEW020 BKN036 11/07 Q1027 BLU NOSIG W (280°) 10.4mph 11°C 7°C
19/03/19 14:50 EGDM 191450Z 29011KT 9999 FEW020 BKN035 12/07 Q1027 BLU NOSIG WNW (290°) 12.7mph 12°C 7°C
19/03/19 13:50 EGDM 191350Z 29009KT 9999 FEW018 BKN028 BKN042 11/07 Q1027 BLU TEMPO SCT018 WHT WNW (290°) 10.4mph 11°C 7°C
19/03/19 12:50 EGDM 191250Z 25008KT 9999 SCT020 BKN030 BKN045 12/07 Q1027 WHT TEMPO FEW020 BLU WSW (250°) 9.2mph 12°C 7°C
19/03/19 11:50 EGDM 191150Z 24006KT 9999 FEW015 SCT020 BKN035 11/08 Q1027 WHT NOSIG WSW (240°) 6.9mph 11°C 8°C
19/03/19 10:50 EGDM 191050Z 22004KT 9999 FEW012 BKN035 11/08 Q1027 BLU TEMPO SCT015 WHT SW (220°) 4.6mph 11°C 8°C
19/03/19 09:50 EGDM 190950Z 21004KT 9999 FEW008 BKN040 09/08 Q1027 BLU TEMPO SCT010 GRN SSW (210°) 4.6mph 9°C 8°C
19/03/19 08:50 EGDM 190850Z 18003KT 9000 BR FEW004 BKN032 08/07 Q1027 BLU TEMPO SCT010 GRN BR S (180°) 3.5mph 8°C 7°C
19/03/19 07:50 EGDM 190750Z 22003KT 8000 BR FEW003 BKN030 07/07 Q1026 BLU TEMPO 6000 WHT BR SW (220°) 3.5mph 7°C 7°C
19/03/19 06:50 EGDM 190650Z 27005KT 8000 BR FEW004 BKN035 06/06 Q1026 BLU BR W (270°) 5.8mph 6°C 6°C
19/03/19 05:50 EGDM 190550Z AUTO 29002KT 4400 OVC032/// 06/06 Q1025 WNW (290°) 2.3mph 6°C 6°C
19/03/19 04:50 EGDM 190450Z AUTO 14002KT 4000 OVC032/// 05/05 Q1025 SE (140°) 2.3mph 5°C 5°C
19/03/19 03:50 EGDM 190350Z AUTO 28005KT 3200 BR FEW007/// BKN031/// 06/06 Q1025 BR W (280°) 5.8mph 6°C 6°C
19/03/19 02:50 EGDM 190250Z AUTO 25006KT 4200 BR BKN003/// BKN037/// BKN080/// 06/05 Q1025 BR WSW (250°) 6.9mph 6°C 5°C
19/03/19 01:50 EGDM 190150Z AUTO 27004KT 5000 BR OVC080/// 05/05 Q1025 BR W (270°) 4.6mph 5°C 5°C
19/03/19 00:50 EGDM 190050Z AUTO 26005KT 9999 BKN033/// BKN090/// 06/05 Q1025 W (260°) 5.8mph 6°C 5°C
18/03/19 23:50 EGDM 182350Z AUTO 27004KT 9999 OVC032/// 07/06 Q1024 W (270°) 4.6mph 7°C 6°C
18/03/19 22:50 EGDM 182250Z AUTO 28005KT 9999 OVC034/// 07/06 Q1024 W (280°) 5.8mph 7°C 6°C
18/03/19 21:50 EGDM 182150Z AUTO 28003KT 9999 OVC035/// 07/06 Q1024 W (280°) 3.5mph 7°C 6°C
18/03/19 20:50 EGDM 182050Z AUTO 25002KT 9999 FEW009/// OVC035/// 07/06 Q1024 WSW (250°) 2.3mph 7°C 6°C
18/03/19 19:50 EGDM 181950Z AUTO 24004KT 9999 OVC037/// 07/06 Q1023 WSW (240°) 4.6mph 7°C 6°C
18/03/19 18:50 EGDM 181850Z AUTO 27006KT 9999 FEW015/// BKN033/// 07/06 Q1023 W (270°) 6.9mph 7°C 6°C
18/03/19 17:50 EGDM 181750Z 26008KT 9999 FEW013 BKN030 08/05 Q1022 BLU W (260°) 9.2mph 8°C 5°C
18/03/19 16:50 EGDM 181650Z 27008KT 9999 FEW013 BKN038 08/06 Q1022 BLU TEMPO SCT013 GRN W (270°) 9.2mph 8°C 6°C
18/03/19 15:50 EGDM 181550Z 29012KT 9999 -SHRA SCT016 BKN040 09/06 Q1021 WHT TEMPO FEW020 BLU -SHRA WNW (290°) 13.8mph 9°C 6°C
18/03/19 14:50 EGDM 181450Z 28011KT 9999 -SHRA FEW018 BKN030 08/05 Q1021 BLU TEMPO SCT020 WHT -SHRA W (280°) 12.7mph 8°C 5°C
18/03/19 13:50 EGDM 181350Z 28012KT 9999 -SHRA SCT020 BKN110 09/05 Q1021 WHT TEMPO FEW020 BLU -SHRA W (280°) 13.8mph 9°C 5°C
18/03/19 12:50 EGDM 181250Z 28012KT 9999 -SHRA SCT025 BKN060 09/04 Q1021 BLU NOSIG -SHRA W (280°) 13.8mph 9°C 4°C
18/03/19 11:50 EGDM 181150Z 28014KT 9999 -SHRA FEW025 OVC100 09/04 Q1021 BLU TEMPO SCT020 WHT -SHRA W (280°) 16.1mph 9°C 4°C
18/03/19 10:50 EGDM 181050Z 30016KT 9999 -SHRA FEW032 SCT060 BKN090 10/02 Q1021 BLU TEMPO SCT020 WHT -SHRA WNW (300°) 18.4mph 10°C 2°C
18/03/19 09:50 EGDM 180950Z 29010KT 9999 FEW022 SCT110 09/03 Q1021 BLU NOSIG WNW (290°) 11.5mph 9°C 3°C
18/03/19 08:50 EGDM 180850Z 28010KT 9999 FEW012 SCT100 07/04 Q1021 BLU TEMPO SCT015 WHT W (280°) 11.5mph 7°C 4°C
18/03/19 07:50 EGDM 180750Z 27006KT CAVOK 05/03 Q1020 BLU NOSIG W (270°) 6.9mph 5°C 3°C
18/03/19 06:50 EGDM 180650Z 27001KT CAVOK 04/02 Q1020 BLU W (270°) 1.2mph 4°C 2°C
18/03/19 05:50 EGDM 180550Z AUTO 30003KT 9999 OVC120/// 03/02 Q1019 WNW (300°) 3.5mph 3°C 2°C
18/03/19 04:50 EGDM 180450Z AUTO 31004KT 9999 BKN150/// 03/02 Q1019 NW (310°) 4.6mph 3°C 2°C
18/03/19 03:50 EGDM 180350Z AUTO 29009KT 9999 FEW180/// 04/02 Q1018 WNW (290°) 10.4mph 4°C 2°C
18/03/19 02:50 EGDM 180250Z AUTO 30004KT 9999 FEW180/// 03/02 Q1018 WNW (300°) 4.6mph 3°C 2°C
18/03/19 01:50 EGDM 180150Z AUTO 28008KT 9999 NCD 03/02 Q1017 W (280°) 9.2mph 3°C 2°C
18/03/19 00:50 EGDM 180050Z AUTO 29009KT 9999 NCD 04/02 Q1017 WNW (290°) 10.4mph 4°C 2°C
17/03/19 23:50 EGDM 172350Z AUTO 27007KT 9999 NCD 04/02 Q1016 W (270°) 8.1mph 4°C 2°C
17/03/19 22:50 EGDM 172250Z AUTO 27009KT 9999 NCD 04/03 Q1015 W (270°) 10.4mph 4°C 3°C
17/03/19 21:50 EGDM 172150Z AUTO 29010KT 9999 FEW050/// 05/03 Q1014 WNW (290°) 11.5mph 5°C 3°C
17/03/19 20:50 EGDM 172050Z AUTO 29010KT 9999 FEW050/// 05/03 Q1013 WNW (290°) 11.5mph 5°C 3°C
17/03/19 19:50 EGDM 171950Z AUTO 29006KT 9999 FEW040/// SCT050/// 06/03 Q1012 WNW (290°) 6.9mph 6°C 3°C
17/03/19 18:50 EGDM 171850Z AUTO 27012KT 9999 FEW042/// 05/04 Q1011 RERA W (270°) 13.8mph 5°C 4°C
17/03/19 17:50 EGDM 171750Z AUTO 27013KT 9999 FEW021/// BKN060/// 06/03 Q1010 RERA W (270°) 15.0mph 6°C 3°C
17/03/19 16:50 EGDM 171650Z AUTO 28017KT 9999 FEW025/// BKN050/// 07/01 Q1009 W (280°) 19.6mph 7°C 1°C
17/03/19 15:50 EGDM 171550Z AUTO 28018KT 9999 BKN100/// 08/00 Q1009 W (280°) 20.7mph 8°C 0°C
17/03/19 14:50 EGDM 171450Z AUTO 27021KT 9999 FEW050/// 08/M00 Q1008 W (270°) 24.2mph 8°C 0°C
17/03/19 13:50 EGDM 171350Z AUTO 27020KT 9999 FEW037/// 09/01 Q1007 W (270°) 23.0mph 9°C 1°C